Hlavní strana
METAR-TAF:

METAR-TAF

Letiště :

Brandon, Manitoba, Kanada

zeměpisná šířka: 49-55N, zeměpisná délka: 099-57W, výška: 409 m

Aktuální stav počasí

Zpráva byla vytvořena před 1 hodinou a 7 minutami, v 06:00 UTC
Severní vítr 5 kt
Teplota 9°C
Vlhkost vzduchu 81%
Tlak 1023 hPa
Viditelnost: 24.1 km
Jasno

METAR: CYBR 200600Z 35005KT 15SM SKC 09/06 A3020 RMK SLP238

Čas: 02:07 (07:07 UTC)

Předpověď počasí

Zpráva byla vytvořena před 1 hodinou a 29 minutami, v 05:38 UTC
Předpověď platná od 20 v 06 UTC do 20 v 18 UTC
Severní vítr 5 kt
Viditelnost: 10 km
Skoro jasno ve výšce 6000 ft

TAF: CYBR 200538Z 2006/2018 36005KT P6SM FEW060 RMK NXT FCST BY 201200Z

Stav a předpovědi počasí z více než 4 000 letišť (zprávy METAR a TAF).

Červené a žluté tečky na mapě představují dostupné meteorologické stanice.

Když kurzor umístíte na tečku, zobrazí se název stanice.

Pak kliknutím zobrazíte stav a předpověď počasí.

Chcete-li změnit mapu, kliknutím na zelené tlačítko se znaménkem +mapu přiblížíte, kliknutím na zelené tlačítko se znaménkem – mapu oddálíte a kliknutím na zelené šipky přejdete na sousední mapy.


METAR-TAF: